Terminal Aerodrome Forecast
Issued by NWS Sterling, VA

Current Version | Previous Version | Text Only | Print | Product List | Glossary Off
Versions: 1 2 3 4 5 6 7 8 9 10 11 12 13 14 15 16 17 18 19 20 21 22 23 24 25

876
FTUS41 KLWX 252320
TAFDCA
TAF
KDCA 252320Z 2600/2624 17005KT P6SM BKN060
     FM260200 18006KT P6SM FEW060 SCT070
     FM261400 23010KT P6SM SCT060
     FM261800 24013KT 6SM -SHRA BKN060=

USA.gov is the U.S. government's official web portal to all federal, state and local government web resources and services.